Time;durP1;ratioP1;P1;durP2;ratioP2;P2;SDS_P1;SDS_P2;PMS_P1;PMS_P2;Temp;Humidity;BMP_temperature;BMP_pressure;BME280_temperature;BME280_humidity;BME280_pressure;Samples;Min_cycle;Max_cycle;Signal;HPM_P1;HPM_P2
2022/05/15 00:02:05;;;;;;;;;;;20.90;99.90;;;;;;5045196;28;20320;-71
2022/05/15 00:04:31;;;;;;;;;;;20.90;99.90;;;;;;5031615;28;19909;-71
2022/05/15 00:06:56;;;;;;;;;;;20.90;99.90;;;;;;5031755;28;19916;-70
2022/05/15 00:09:22;;;;;;;;;;;20.90;99.90;;;;;;5023705;28;20369;-70
2022/05/15 00:11:48;;;;;;;;;;;20.90;99.90;;;;;;5040953;28;19924;-70
2022/05/15 00:14:14;;;;;;;;;;;20.90;99.90;;;;;;5032572;28;19921;-69
2022/05/15 00:16:39;;;;;;;;;;;20.80;99.90;;;;;;5031495;28;20282;-70
2022/05/15 00:19:05;;;;;;;;;;;20.90;99.90;;;;;;5018476;28;20420;-71
2022/05/15 00:21:30;;;;;;;;;;;20.90;99.90;;;;;;5051393;28;19959;-70
2022/05/15 00:23:56;;;;;;;;;;;20.90;99.90;;;;;;5037995;28;19913;-70
2022/05/15 00:26:22;;;;;;;;;;;20.90;99.90;;;;;;5031164;28;19955;-70
2022/05/15 00:28:47;;;;;;;;;;;20.90;99.90;;;;;;5050786;28;19916;-70
2022/05/15 00:31:13;;;;;;;;;;;20.90;99.90;;;;;;5051184;28;19919;-70
2022/05/15 00:33:38;;;;;;;;;;;20.80;99.90;;;;;;5059866;28;19908;-70
2022/05/15 00:36:04;;;;;;;;;;;20.80;99.90;;;;;;5055170;28;19916;-69
2022/05/15 00:38:30;;;;;;;;;;;20.80;99.90;;;;;;5041016;28;19992;-70
2022/05/15 00:40:55;;;;;;;;;;;20.70;99.90;;;;;;5037359;28;20303;-70
2022/05/15 00:43:35;;;;;;;;;;;20.70;99.90;;;;;;5034767;28;19913;-69
2022/05/15 00:46:01;;;;;;;;;;;20.70;99.90;;;;;;5036491;28;19920;-70
2022/05/15 00:48:27;;;;;;;;;;;20.70;99.90;;;;;;5043124;28;19913;-70
2022/05/15 00:50:53;;;;;;;;;;;20.80;99.90;;;;;;5050522;28;19921;-70
2022/05/15 00:53:19;;;;;;;;;;;20.90;99.90;;;;;;5053077;28;19927;-70
2022/05/15 00:55:45;;;;;;;;;;;20.90;99.90;;;;;;5047953;28;20010;-69
2022/05/15 00:58:14;;;;;;;;;;;20.90;99.90;;;;;;5056467;28;20518;-70
2022/05/15 01:00:40;;;;;;;;;;;21.00;99.90;;;;;;5032747;28;19924;-70
2022/05/15 01:03:08;;;;;;;;;;;21.00;99.90;;;;;;5051115;28;19921;-70
2022/05/15 01:05:35;;;;;;;;;;;20.90;99.90;;;;;;5047698;28;19913;-71
2022/05/15 01:08:00;;;;;;;;;;;21.00;99.90;;;;;;5033186;28;20279;-70
2022/05/15 01:10:26;;;;;;;;;;;20.90;99.90;;;;;;5048366;28;19917;-70
2022/05/15 01:12:52;;;;;;;;;;;21.00;99.90;;;;;;5048781;28;19913;-70
2022/05/15 01:15:20;;;;;;;;;;;21.00;99.90;;;;;;5048928;28;19912;-68
2022/05/15 01:17:46;;;;;;;;;;;21.00;99.90;;;;;;5029240;28;19966;-69
2022/05/15 01:20:13;;;;;;;;;;;21.00;99.90;;;;;;5048670;28;19956;-70
2022/05/15 01:22:39;;;;;;;;;;;21.00;99.90;;;;;;5028448;28;19913;-70
2022/05/15 01:25:08;;;;;;;;;;;20.90;99.90;;;;;;5049949;28;20461;-70
2022/05/15 01:27:34;;;;;;;;;;;20.90;99.90;;;;;;5055809;28;19912;-70
2022/05/15 01:30:00;;;;;;;;;;;20.90;99.90;;;;;;5050611;28;19909;-70
2022/05/15 01:32:25;;;;;;;;;;;20.90;99.90;;;;;;5056911;28;20293;-71
2022/05/15 01:34:51;;;;;;;;;;;20.90;99.90;;;;;;5058842;28;19909;-70
2022/05/15 01:37:17;;;;;;;;;;;20.90;99.90;;;;;;5057038;28;19912;-70
2022/05/15 01:39:42;;;;;;;;;;;21.00;99.90;;;;;;5058031;28;19913;-70
2022/05/15 01:42:09;;;;;;;;;;;20.90;99.90;;;;;;5053722;28;20370;-70
2022/05/15 01:44:34;;;;;;;;;;;20.90;99.90;;;;;;5053800;28;19948;-70
2022/05/15 01:47:00;;;;;;;;;;;20.90;99.90;;;;;;5056933;28;20007;-71
2022/05/15 01:49:26;;;;;;;;;;;20.80;99.90;;;;;;5064912;28;19927;-71
2022/05/15 01:51:51;;;;;;;;;;;20.80;99.90;;;;;;5057001;28;19912;-70
2022/05/15 01:54:17;;;;;;;;;;;20.80;99.90;;;;;;5060339;28;20267;-69
2022/05/15 01:56:43;;;;;;;;;;;20.70;99.90;;;;;;5063959;28;19912;-69
2022/05/15 01:59:08;;;;;;;;;;;20.60;99.90;;;;;;5065067;28;19916;-70
2022/05/15 02:01:34;;;;;;;;;;;20.40;99.90;;;;;;5061635;28;19917;-70
2022/05/15 02:04:00;;;;;;;;;;;20.40;99.90;;;;;;5052147;28;20393;-71
2022/05/15 02:06:28;;;;;;;;;;;20.50;99.90;;;;;;5051586;28;20000;-70
2022/05/15 02:08:54;;;;;;;;;;;20.60;99.90;;;;;;5051924;28;19944;-70
2022/05/15 02:11:20;;;;;;;;;;;20.50;99.90;;;;;;5053045;28;19909;-69
2022/05/15 02:13:45;;;;;;;;;;;20.50;99.90;;;;;;5059105;28;20000;-70
2022/05/15 02:16:11;;;;;;;;;;;20.40;99.90;;;;;;5053481;28;19959;-70
2022/05/15 02:18:37;;;;;;;;;;;20.20;99.90;;;;;;5051177;28;19923;-71
2022/05/15 02:21:02;;;;;;;;;;;20.20;99.90;;;;;;5053140;28;20381;-71
2022/05/15 02:23:28;;;;;;;;;;;20.00;99.90;;;;;;5049114;28;19975;-72
2022/05/15 02:25:53;;;;;;;;;;;19.80;99.90;;;;;;5047960;28;20480;-69
2022/05/15 02:28:20;;;;;;;;;;;19.70;99.90;;;;;;5038352;28;19920;-70
2022/05/15 02:30:49;;;;;;;;;;;19.70;99.90;;;;;;5067304;28;19952;-70
2022/05/15 02:33:14;;;;;;;;;;;19.70;99.90;;;;;;5061633;28;19919;-71
2022/05/15 02:35:40;;;;;;;;;;;19.70;99.90;;;;;;5055576;28;19999;-71
2022/05/15 02:38:06;;;;;;;;;;;19.60;99.90;;;;;;5065025;28;20046;-71
2022/05/15 02:40:31;;;;;;;;;;;19.60;99.90;;;;;;5069470;28;20067;-71
2022/05/15 02:42:57;;;;;;;;;;;19.50;99.90;;;;;;5066167;28;19913;-71
2022/05/15 02:45:23;;;;;;;;;;;19.50;99.90;;;;;;5057805;28;19920;-71
2022/05/15 02:47:48;;;;;;;;;;;19.40;99.90;;;;;;5058252;28;19909;-69
2022/05/15 02:52:58;;;;;;;;;;;19.50;99.90;;;;;;5053652;28;19954;-69
2022/05/15 02:55:24;;;;;;;;;;;19.40;99.90;;;;;;5056484;28;19912;-69
2022/05/15 02:57:50;;;;;;;;;;;19.50;99.90;;;;;;5057226;28;20271;-70
2022/05/15 03:00:17;;;;;;;;;;;19.50;99.90;;;;;;5052206;28;19924;-71
2022/05/15 03:02:42;;;;;;;;;;;19.40;99.90;;;;;;5056195;28;19920;-71
2022/05/15 03:05:09;;;;;;;;;;;19.40;99.90;;;;;;5057409;28;19913;-71
2022/05/15 03:07:36;;;;;;;;;;;19.40;99.90;;;;;;5057818;28;19920;-70
2022/05/15 03:10:02;;;;;;;;;;;19.40;99.90;;;;;;5060455;28;19927;-70
2022/05/15 03:12:27;;;;;;;;;;;19.40;99.90;;;;;;5057827;28;20388;-69
2022/05/15 03:14:53;;;;;;;;;;;19.50;99.90;;;;;;5053291;28;19912;-69
2022/05/15 03:17:19;;;;;;;;;;;19.40;99.90;;;;;;5055969;28;20008;-70
2022/05/15 03:19:45;;;;;;;;;;;19.40;99.90;;;;;;5063991;28;20003;-71
2022/05/15 03:22:11;;;;;;;;;;;19.50;99.90;;;;;;5053515;28;19913;-71
2022/05/15 03:24:36;;;;;;;;;;;19.50;99.90;;;;;;5035505;28;19956;-71
2022/05/15 03:27:02;;;;;;;;;;;19.40;99.90;;;;;;5055627;28;19917;-72
2022/05/15 03:29:28;;;;;;;;;;;19.50;99.90;;;;;;5063791;28;20371;-71
2022/05/15 03:31:54;;;;;;;;;;;19.40;99.90;;;;;;5058111;28;19908;-71
2022/05/15 03:34:19;;;;;;;;;;;19.30;99.90;;;;;;5056120;28;19909;-70
2022/05/15 03:36:46;;;;;;;;;;;19.30;99.90;;;;;;5038108;28;20377;-71
2022/05/15 03:39:12;;;;;;;;;;;19.40;99.90;;;;;;5054606;28;19916;-71
2022/05/15 03:41:38;;;;;;;;;;;19.40;99.90;;;;;;5054511;28;19924;-72
2022/05/15 03:44:03;;;;;;;;;;;19.50;99.90;;;;;;5064130;28;19966;-70
2022/05/15 03:46:29;;;;;;;;;;;19.50;99.90;;;;;;5071805;28;20007;-70
2022/05/15 03:48:56;;;;;;;;;;;19.50;99.90;;;;;;5063622;28;19919;-69
2022/05/15 03:51:21;;;;;;;;;;;19.60;99.90;;;;;;5054183;28;20374;-70
2022/05/15 03:53:47;;;;;;;;;;;19.60;99.90;;;;;;5052431;28;19913;-70
2022/05/15 03:56:12;;;;;;;;;;;19.70;99.90;;;;;;5061752;28;20078;-71
2022/05/15 03:58:38;;;;;;;;;;;19.60;99.90;;;;;;5056141;28;19923;-70
2022/05/15 04:01:05;;;;;;;;;;;19.60;99.90;;;;;;5049854;28;19913;-71
2022/05/15 04:03:31;;;;;;;;;;;19.70;99.90;;;;;;5050287;28;19995;-69
2022/05/15 04:05:57;;;;;;;;;;;19.70;99.90;;;;;;5047310;28;20032;-70
2022/05/15 04:08:23;;;;;;;;;;;19.80;99.90;;;;;;5027912;28;19920;-69
2022/05/15 04:10:49;;;;;;;;;;;19.90;99.90;;;;;;5052434;28;19917;-71
2022/05/15 04:13:14;;;;;;;;;;;19.90;99.90;;;;;;5060578;28;19913;-71
2022/05/15 04:15:40;;;;;;;;;;;20.00;99.90;;;;;;5058791;28;19913;-71
2022/05/15 04:18:06;;;;;;;;;;;20.00;99.90;;;;;;5067670;28;19923;-70
2022/05/15 04:20:31;;;;;;;;;;;20.10;99.90;;;;;;5064326;28;19912;-69
2022/05/15 04:22:57;;;;;;;;;;;20.10;99.90;;;;;;5063437;28;19923;-69
2022/05/15 04:25:23;;;;;;;;;;;20.10;99.90;;;;;;5067110;28;19960;-72
2022/05/15 04:27:49;;;;;;;;;;;20.10;99.90;;;;;;5053668;28;19925;-71
2022/05/15 04:30:16;;;;;;;;;;;20.10;99.90;;;;;;5049344;28;19913;-70
2022/05/15 04:32:42;;;;;;;;;;;20.10;99.90;;;;;;5049708;28;19913;-69
2022/05/15 04:35:08;;;;;;;;;;;20.10;99.90;;;;;;5052655;28;19919;-70
2022/05/15 04:37:34;;;;;;;;;;;20.10;99.90;;;;;;5050802;28;20032;-70
2022/05/15 04:40:00;;;;;;;;;;;20.10;99.90;;;;;;5048753;28;20003;-70
2022/05/15 04:42:25;;;;;;;;;;;20.10;99.90;;;;;;5053148;28;19913;-71
2022/05/15 04:44:51;;;;;;;;;;;20.20;99.90;;;;;;5060354;28;19908;-71
2022/05/15 04:47:17;;;;;;;;;;;20.20;99.90;;;;;;5035536;28;19913;-68
2022/05/15 04:49:43;;;;;;;;;;;20.30;99.90;;;;;;5043785;28;20564;-70
2022/05/15 04:52:09;;;;;;;;;;;20.30;99.90;;;;;;5055805;28;19920;-70
2022/05/15 04:54:36;;;;;;;;;;;20.30;99.90;;;;;;5058125;28;19958;-70
2022/05/15 04:57:01;;;;;;;;;;;20.30;99.90;;;;;;5062759;28;19995;-70
2022/05/15 04:59:27;;;;;;;;;;;20.30;99.90;;;;;;5062876;28;20082;-69
2022/05/15 05:01:52;;;;;;;;;;;20.30;99.90;;;;;;5050249;28;20000;-70
2022/05/15 05:04:18;;;;;;;;;;;20.30;99.90;;;;;;5048980;28;19928;-71
2022/05/15 05:06:44;;;;;;;;;;;20.50;99.90;;;;;;5060158;28;19916;-69
2022/05/15 05:09:11;;;;;;;;;;;20.50;99.90;;;;;;5063094;28;19923;-70
2022/05/15 05:11:37;;;;;;;;;;;20.60;99.90;;;;;;5062477;28;20004;-70
2022/05/15 05:14:03;;;;;;;;;;;20.60;99.90;;;;;;5064556;28;20581;-71
2022/05/15 05:16:30;;;;;;;;;;;20.60;99.90;;;;;;5061270;28;20004;-70
2022/05/15 05:18:56;;;;;;;;;;;20.70;99.90;;;;;;5057117;28;19970;-72
2022/05/15 05:21:21;;;;;;;;;;;20.80;99.90;;;;;;5054011;28;19923;-70
2022/05/15 05:23:47;;;;;;;;;;;20.80;99.90;;;;;;5053769;28;19913;-71
2022/05/15 05:26:13;;;;;;;;;;;20.80;99.90;;;;;;5054950;28;20000;-70
2022/05/15 05:28:38;;;;;;;;;;;20.90;99.90;;;;;;5059153;28;19921;-71
2022/05/15 05:31:04;;;;;;;;;;;21.00;99.90;;;;;;5065631;28;19909;-70
2022/05/15 05:33:30;;;;;;;;;;;21.00;99.90;;;;;;5062866;28;19912;-70
2022/05/15 05:35:55;;;;;;;;;;;21.10;99.90;;;;;;5065516;28;19999;-70
2022/05/15 05:38:21;;;;;;;;;;;21.20;99.90;;;;;;5073590;28;19916;-70
2022/05/15 05:40:47;;;;;;;;;;;21.30;99.90;;;;;;5060684;28;19908;-71
2022/05/15 05:43:15;;;;;;;;;;;21.50;99.90;;;;;;5061421;28;19991;-71
2022/05/15 05:45:41;;;;;;;;;;;21.60;99.90;;;;;;5043738;28;19951;-71
2022/05/15 05:48:07;;;;;;;;;;;21.70;99.90;;;;;;5040583;28;19913;-70
2022/05/15 05:50:32;;;;;;;;;;;21.60;99.90;;;;;;5042514;28;19916;-70
2022/05/15 05:52:58;;;;;;;;;;;21.60;99.90;;;;;;5059572;28;19946;-70
2022/05/15 05:55:24;;;;;;;;;;;21.70;99.90;;;;;;5056988;28;20123;-71
2022/05/15 05:57:50;;;;;;;;;;;21.80;99.90;;;;;;5035700;28;20330;-70
2022/05/15 06:00:26;;;;;;;;;;;21.90;99.90;;;;;;5049650;28;20030;-70
2022/05/15 06:02:52;;;;;;;;;;;21.90;99.90;;;;;;5052958;28;19913;-70
2022/05/15 06:05:19;;;;;;;;;;;22.00;99.90;;;;;;5048394;28;19920;-70
2022/05/15 06:07:44;;;;;;;;;;;22.00;99.90;;;;;;5052996;28;19924;-70
2022/05/15 06:10:11;;;;;;;;;;;22.20;99.90;;;;;;5058593;28;20364;-73
2022/05/15 06:12:40;;;;;;;;;;;22.30;99.90;;;;;;5040309;28;19913;-71
2022/05/15 06:15:07;;;;;;;;;;;22.40;99.90;;;;;;5060588;28;19966;-70
2022/05/15 06:17:32;;;;;;;;;;;22.40;99.90;;;;;;5060923;28;19921;-70
2022/05/15 06:19:58;;;;;;;;;;;22.50;99.90;;;;;;5065724;28;20015;-70
2022/05/15 06:22:23;;;;;;;;;;;22.50;99.90;;;;;;5064222;28;19919;-70
2022/05/15 06:24:49;;;;;;;;;;;22.70;99.90;;;;;;5055085;28;19909;-70
2022/05/15 06:27:15;;;;;;;;;;;22.80;99.90;;;;;;5050952;28;20027;-72
2022/05/15 06:29:41;;;;;;;;;;;22.80;99.90;;;;;;5052361;28;20291;-70
2022/05/15 06:32:06;;;;;;;;;;;22.90;99.90;;;;;;5054812;28;20508;-70
2022/05/15 06:34:32;;;;;;;;;;;23.00;99.90;;;;;;5054620;28;19948;-71
2022/05/15 06:36:58;;;;;;;;;;;23.10;99.90;;;;;;5052953;28;19952;-71
2022/05/15 06:39:23;;;;;;;;;;;23.20;99.90;;;;;;5045174;28;20393;-71
2022/05/15 06:41:50;;;;;;;;;;;23.30;99.90;;;;;;5047004;28;19974;-71
2022/05/15 06:44:17;;;;;;;;;;;23.30;99.90;;;;;;5029268;28;20398;-70
2022/05/15 06:46:43;;;;;;;;;;;23.40;99.90;;;;;;5050140;28;19912;-71
2022/05/15 06:49:08;;;;;;;;;;;23.40;99.90;;;;;;5056279;28;19955;-72
2022/05/15 06:51:34;;;;;;;;;;;23.50;99.90;;;;;;5059836;28;20313;-59
2022/05/15 06:53:59;;;;;;;;;;;23.60;99.90;;;;;;5055234;28;20008;-63
2022/05/15 06:59:09;;;;;;;;;;;23.60;99.90;;;;;;5052097;28;19947;-64
2022/05/15 07:01:35;;;;;;;;;;;23.70;99.90;;;;;;5052041;28;20339;-65
2022/05/15 07:04:00;;;;;;;;;;;23.70;99.90;;;;;;5049762;28;20075;-63
2022/05/15 07:06:26;;;;;;;;;;;23.80;99.90;;;;;;5050784;28;20351;-63
2022/05/15 07:08:52;;;;;;;;;;;24.00;99.90;;;;;;5052628;28;19921;-64
2022/05/15 07:11:17;;;;;;;;;;;24.00;99.90;;;;;;5048533;28;19936;-65
2022/05/15 07:13:43;;;;;;;;;;;24.10;99.90;;;;;;5048405;28;19912;-64
2022/05/15 07:16:10;;;;;;;;;;;24.10;99.90;;;;;;5048669;28;19917;-64
2022/05/15 07:18:37;;;;;;;;;;;24.20;99.90;;;;;;5045141;28;19921;-64
2022/05/15 07:21:03;;;;;;;;;;;24.40;99.90;;;;;;5042232;28;20514;-63
2022/05/15 07:23:29;;;;;;;;;;;24.50;99.90;;;;;;5044189;28;19912;-65
2022/05/15 07:25:57;;;;;;;;;;;24.60;99.90;;;;;;5047523;28;19919;-64
2022/05/15 07:28:23;;;;;;;;;;;24.60;99.90;;;;;;5050989;28;19939;-68
2022/05/15 07:30:52;;;;;;;;;;;24.60;99.90;;;;;;5050328;28;20561;-69
2022/05/15 07:33:18;;;;;;;;;;;24.70;99.90;;;;;;5056549;28;19913;-70
2022/05/15 07:35:44;;;;;;;;;;;24.80;99.90;;;;;;5051561;28;19950;-68
2022/05/15 07:38:09;;;;;;;;;;;24.90;99.90;;;;;;5046557;28;19972;-69
2022/05/15 07:40:35;;;;;;;;;;;25.00;99.90;;;;;;5048957;28;19913;-69
2022/05/15 07:43:04;;;;;;;;;;;25.10;99.90;;;;;;5051684;28;19913;-69
2022/05/15 07:45:30;;;;;;;;;;;25.10;99.90;;;;;;5052748;28;20296;-70
2022/05/15 07:47:55;;;;;;;;;;;25.20;99.90;;;;;;5053285;28;19909;-69
2022/05/15 07:50:21;;;;;;;;;;;25.30;99.90;;;;;;5050830;28;20298;-70
2022/05/15 07:52:47;;;;;;;;;;;25.40;99.90;;;;;;5042209;28;19958;-70
2022/05/15 07:55:14;;;;;;;;;;;25.50;99.90;;;;;;5036463;28;19913;-71
2022/05/15 07:57:39;;;;;;;;;;;25.60;99.90;;;;;;5041642;28;19976;-71
2022/05/15 08:00:08;;;;;;;;;;;25.70;99.90;;;;;;5048554;28;19943;-70
2022/05/15 08:02:35;;;;;;;;;;;25.90;99.90;;;;;;5051856;28;19908;-61
2022/05/15 08:08:02;;;;;;;;;;;26.10;99.90;;;;;;5045492;28;19967;-62
2022/05/15 08:10:32;;;;;;;;;;;26.00;99.90;;;;;;5041258;28;20366;-63
2022/05/15 08:12:58;;;;;;;;;;;26.00;99.90;;;;;;5043318;28;21649;-63
2022/05/15 08:15:23;;;;;;;;;;;25.90;99.90;;;;;;5040128;28;19916;-62
2022/05/15 08:17:49;;;;;;;;;;;25.80;99.90;;;;;;5040012;28;19928;-61
2022/05/15 08:25:44;;;;;;;;;;;25.60;99.90;;;;;;5047884;28;19920;-61
2022/05/15 08:28:09;;;;;;;;;;;25.40;99.90;;;;;;5047619;28;19928;-62
2022/05/15 08:30:35;;;;;;;;;;;25.50;99.90;;;;;;5050773;28;20364;-65
2022/05/15 08:33:01;;;;;;;;;;;25.50;99.90;;;;;;5050714;28;19908;-61
2022/05/15 08:35:27;;;;;;;;;;;25.50;99.90;;;;;;5047607;28;20422;-63
2022/05/15 08:37:53;;;;;;;;;;;25.10;99.90;;;;;;5049110;28;19924;-62
2022/05/15 08:40:22;;;;;;;;;;;24.80;99.90;;;;;;5055587;28;20003;-62
2022/05/15 08:42:55;;;;;;;;;;;24.60;99.90;;;;;;5053984;28;19909;-61
2022/05/15 08:45:23;;;;;;;;;;;24.40;99.90;;;;;;5055737;28;19920;-63
2022/05/15 08:47:52;;;;;;;;;;;24.20;99.90;;;;;;5055760;28;20350;-63
2022/05/15 08:50:19;;;;;;;;;;;24.00;99.90;;;;;;5057025;28;19924;-63
2022/05/15 08:53:05;;;;;;;;;;;24.10;99.90;;;;;;5057455;28;20314;-61
2022/05/15 08:55:31;;;;;;;;;;;24.20;99.90;;;;;;5054231;28;19913;-62
2022/05/15 08:57:56;;;;;;;;;;;24.40;99.90;;;;;;5056839;28;19951;-61
2022/05/15 09:00:31;;;;;;;;;;;24.40;99.90;;;;;;5057011;28;19956;-60
2022/05/15 09:03:12;;;;;;;;;;;24.40;99.90;;;;;;5055471;28;19917;-63
2022/05/15 09:05:38;;;;;;;;;;;24.50;99.90;;;;;;5054049;28;20002;-61
2022/05/15 09:08:09;;;;;;;;;;;24.60;99.90;;;;;;5056167;28;19995;-62
2022/05/15 09:10:35;;;;;;;;;;;24.50;99.90;;;;;;5055360;28;19913;-62
2022/05/15 09:13:05;;;;;;;;;;;24.40;99.90;;;;;;5057108;28;19909;-63
2022/05/15 09:15:31;;;;;;;;;;;24.40;99.90;;;;;;5057514;28;19909;-61
2022/05/15 09:18:00;;;;;;;;;;;24.40;99.90;;;;;;5054111;28;20333;-62
2022/05/15 09:20:26;;;;;;;;;;;24.40;99.90;;;;;;5052715;28;20357;-61
2022/05/15 09:22:57;;;;;;;;;;;24.30;99.90;;;;;;5057198;28;19963;-62
2022/05/15 09:25:24;;;;;;;;;;;24.30;99.90;;;;;;5051503;28;20293;-61
2022/05/15 09:28:01;;;;;;;;;;;24.20;99.90;;;;;;5057035;28;19909;-62
2022/05/15 09:30:35;;;;;;;;;;;24.10;99.90;;;;;;5056607;28;19909;-61
2022/05/15 09:33:00;;;;;;;;;;;24.20;99.90;;;;;;5056817;28;19915;-62
2022/05/15 09:35:35;;;;;;;;;;;24.30;99.90;;;;;;5056791;28;19913;-62
2022/05/15 09:43:35;;;;;;;;;;;24.50;99.90;;;;;;5057115;28;19962;-62
2022/05/15 09:46:10;;;;;;;;;;;24.50;99.90;;;;;;5056772;28;19975;-63
2022/05/15 09:48:38;;;;;;;;;;;24.60;99.90;;;;;;5056439;28;19912;-62
2022/05/15 09:51:07;;;;;;;;;;;24.60;99.90;;;;;;5056504;28;19909;-60
2022/05/15 09:53:32;;;;;;;;;;;24.80;99.90;;;;;;5052597;28;19952;-62
2022/05/15 09:55:58;;;;;;;;;;;25.00;99.90;;;;;;5050379;28;19971;-61
2022/05/15 09:58:24;;;;;;;;;;;24.90;99.90;;;;;;5053484;28;20017;-61
2022/05/15 10:00:49;;;;;;;;;;;25.00;99.90;;;;;;5053606;28;19913;-62
2022/05/15 10:03:17;;;;;;;;;;;24.90;99.90;;;;;;5054064;28;20483;-63
2022/05/15 10:05:43;;;;;;;;;;;24.90;99.90;;;;;;5052324;28;19909;-62
2022/05/15 10:08:10;;;;;;;;;;;24.80;99.90;;;;;;5052112;28;20423;-62
2022/05/15 10:10:42;;;;;;;;;;;24.90;99.90;;;;;;5053084;28;19913;-62
2022/05/15 10:13:10;;;;;;;;;;;24.80;99.90;;;;;;5053238;28;19962;-62
2022/05/15 10:15:40;;;;;;;;;;;24.90;99.90;;;;;;5053160;28;19916;-61
2022/05/15 10:18:08;;;;;;;;;;;24.90;99.90;;;;;;5051698;28;19971;-62
2022/05/15 10:20:35;;;;;;;;;;;24.90;99.90;;;;;;5050236;28;19919;-61
2022/05/15 10:23:01;;;;;;;;;;;24.80;99.90;;;;;;5053019;28;20366;-61
2022/05/15 10:25:35;;;;;;;;;;;24.90;99.90;;;;;;5051095;28;19916;-63
2022/05/15 10:28:07;;;;;;;;;;;24.90;99.90;;;;;;5052171;28;19952;-63
2022/05/15 10:30:37;;;;;;;;;;;25.00;99.90;;;;;;5052458;28;19920;-62
2022/05/15 10:33:06;;;;;;;;;;;25.10;99.90;;;;;;5051950;28;19920;-62
2022/05/15 10:35:50;;;;;;;;;;;25.10;99.90;;;;;;5052293;28;19913;-62
2022/05/15 10:38:17;;;;;;;;;;;25.20;99.90;;;;;;5051524;28;19932;-62
2022/05/15 10:40:48;;;;;;;;;;;25.10;99.90;;;;;;5051383;28;19912;-62
2022/05/15 10:43:26;;;;;;;;;;;25.10;99.90;;;;;;5051479;28;19920;-63
2022/05/15 10:45:54;;;;;;;;;;;25.00;99.90;;;;;;5052448;28;19991;-62
2022/05/15 10:48:22;;;;;;;;;;;25.00;99.90;;;;;;5052415;28;20347;-63
2022/05/15 10:50:48;;;;;;;;;;;25.10;99.90;;;;;;5048929;28;19920;-63
2022/05/15 10:58:57;;;;;;;;;;;25.10;99.90;;;;;;5051924;28;20088;-60
2022/05/15 11:01:51;;;;;;;;;;;25.30;99.90;;;;;;5052240;28;20445;-62
2022/05/15 11:04:47;;;;;;;;;;;25.40;99.90;;;;;;5034498;28;19916;-62
2022/05/15 11:07:15;;;;;;;;;;;25.60;99.90;;;;;;4983382;28;20330;-61
2022/05/15 11:09:45;;;;;;;;;;;25.70;99.90;;;;;;5052060;28;19913;-61
2022/05/15 11:12:27;;;;;;;;;;;25.60;99.90;;;;;;5052213;28;19999;-60
2022/05/15 11:15:08;;;;;;;;;;;25.60;99.90;;;;;;5052290;28;19916;-61
2022/05/15 11:17:39;;;;;;;;;;;25.60;99.90;;;;;;5052144;28;19944;-61
2022/05/15 11:20:15;;;;;;;;;;;25.60;99.90;;;;;;5034990;28;19921;-61
2022/05/15 11:22:45;;;;;;;;;;;25.60;99.90;;;;;;5038725;28;19996;-60
2022/05/15 11:25:17;;;;;;;;;;;25.70;99.90;;;;;;5047461;28;19919;-62
2022/05/15 11:27:47;;;;;;;;;;;25.70;99.90;;;;;;5033348;28;20326;-60
2022/05/15 11:30:29;;;;;;;;;;;25.60;99.90;;;;;;5048608;28;19913;-61
2022/05/15 11:32:55;;;;;;;;;;;25.80;99.90;;;;;;5049015;28;19917;-61
2022/05/15 11:35:20;;;;;;;;;;;25.80;99.90;;;;;;5051547;28;20405;-60
2022/05/15 11:37:52;;;;;;;;;;;26.00;99.90;;;;;;5051022;28;20328;-61
2022/05/15 11:40:41;;;;;;;;;;;26.00;99.90;;;;;;5049766;28;19920;-62
2022/05/15 11:43:25;;;;;;;;;;;25.90;99.90;;;;;;5049257;28;20309;-63
2022/05/15 11:45:51;;;;;;;;;;;25.80;99.90;;;;;;5047590;28;19947;-64
2022/05/15 11:48:17;;;;;;;;;;;25.80;99.90;;;;;;5059748;28;19909;-64
2022/05/15 11:50:51;;;;;;;;;;;25.70;99.90;;;;;;5051307;28;20004;-62
2022/05/15 11:53:24;;;;;;;;;;;25.80;99.90;;;;;;5049065;28;19913;-62
2022/05/15 11:55:51;;;;;;;;;;;25.70;99.90;;;;;;5049210;28;19913;-63
2022/05/15 11:58:31;;;;;;;;;;;25.70;99.90;;;;;;5051058;28;19916;-62
2022/05/15 12:01:03;;;;;;;;;;;25.80;99.90;;;;;;5047937;28;19917;-60
2022/05/15 12:03:28;;;;;;;;;;;25.80;99.90;;;;;;5048006;28;19912;-62
2022/05/15 12:06:00;;;;;;;;;;;25.90;99.90;;;;;;5050438;28;19923;-61
2022/05/15 12:08:30;;;;;;;;;;;25.90;99.90;;;;;;5049752;28;20377;-61
2022/05/15 12:10:58;;;;;;;;;;;25.90;99.90;;;;;;5049910;28;19916;-61
2022/05/15 12:13:39;;;;;;;;;;;26.10;99.90;;;;;;5049165;28;19920;-60
2022/05/15 12:16:13;;;;;;;;;;;26.40;99.90;;;;;;5041580;28;19909;-62
2022/05/15 12:18:39;;;;;;;;;;;26.40;99.90;;;;;;5019263;28;19917;-62
2022/05/15 12:21:05;;;;;;;;;;;26.20;99.90;;;;;;5047735;28;19959;-61
2022/05/15 12:24:26;;;;;;;;;;;26.10;99.90;;;;;;5047908;28;19958;-61
2022/05/15 12:26:52;;;;;;;;;;;26.10;99.90;;;;;;5049640;28;19939;-61
2022/05/15 12:29:37;;;;;;;;;;;25.90;99.90;;;;;;5037353;28;20546;-60
2022/05/15 12:32:06;;;;;;;;;;;25.90;99.90;;;;;;5049109;28;19913;-60
2022/05/15 12:34:34;;;;;;;;;;;25.80;99.90;;;;;;5050213;28;20350;-60
2022/05/15 12:37:01;;;;;;;;;;;25.80;99.90;;;;;;5050995;28;19908;-61
2022/05/15 12:39:29;;;;;;;;;;;26.00;99.90;;;;;;5048563;28;19959;-61
2022/05/15 12:41:59;;;;;;;;;;;26.20;99.90;;;;;;5049582;28;20015;-61
2022/05/15 12:44:34;;;;;;;;;;;26.30;99.90;;;;;;5048010;28;19958;-60
2022/05/15 12:47:01;;;;;;;;;;;26.40;99.90;;;;;;5047507;28;19936;-61
2022/05/15 12:49:31;;;;;;;;;;;26.50;99.90;;;;;;5049666;28;19978;-61
2022/05/15 12:52:17;;;;;;;;;;;26.50;99.90;;;;;;5050236;28;19917;-60
2022/05/15 12:54:43;;;;;;;;;;;26.60;99.90;;;;;;5045157;28;19920;-61
2022/05/15 12:57:14;;;;;;;;;;;26.70;99.90;;;;;;5048861;28;19917;-62
2022/05/15 12:59:42;;;;;;;;;;;26.70;99.90;;;;;;5029410;28;19928;-62
2022/05/15 13:02:12;;;;;;;;;;;26.60;99.90;;;;;;5061805;28;19919;-63
2022/05/15 13:04:43;;;;;;;;;;;26.50;99.90;;;;;;5070872;28;19909;-60
2022/05/15 13:07:09;;;;;;;;;;;26.40;99.90;;;;;;5046735;28;19917;-61
2022/05/15 13:09:34;;;;;;;;;;;26.40;99.90;;;;;;5048538;28;19913;-59
2022/05/15 13:12:01;;;;;;;;;;;26.50;99.90;;;;;;5047662;28;20283;-61
2022/05/15 13:14:27;;;;;;;;;;;26.40;99.90;;;;;;5050384;28;20110;-60
2022/05/15 13:16:53;;;;;;;;;;;26.30;99.90;;;;;;5059523;28;20503;-63
2022/05/15 13:19:21;;;;;;;;;;;26.20;99.90;;;;;;5046542;28;19917;-63
2022/05/15 13:21:49;;;;;;;;;;;26.20;99.90;;;;;;5050175;28;19913;-61
2022/05/15 13:24:16;;;;;;;;;;;26.30;99.90;;;;;;5050287;28;19908;-61
2022/05/15 13:26:44;;;;;;;;;;;26.30;99.90;;;;;;5050273;28;20050;-61
2022/05/15 13:29:13;;;;;;;;;;;26.40;99.90;;;;;;5048994;28;19913;-62
2022/05/15 13:31:39;;;;;;;;;;;26.50;99.90;;;;;;5062686;28;20007;-62
2022/05/15 13:34:08;;;;;;;;;;;26.60;99.90;;;;;;5036511;28;19948;-62
2022/05/15 13:36:33;;;;;;;;;;;26.60;99.90;;;;;;5053593;28;19940;-61
2022/05/15 13:44:30;;;;;;;;;;;26.50;99.90;;;;;;5058567;28;20035;-63
2022/05/15 13:47:04;;;;;;;;;;;26.50;99.90;;;;;;5054036;28;19920;-64
2022/05/15 13:49:39;;;;;;;;;;;26.40;99.90;;;;;;5053220;28;20002;-61
2022/05/15 13:52:23;;;;;;;;;;;26.60;99.90;;;;;;5059245;28;19995;-63
2022/05/15 13:54:48;;;;;;;;;;;26.50;99.90;;;;;;5050207;28;19920;-61
2022/05/15 13:57:14;;;;;;;;;;;26.50;99.90;;;;;;5053811;28;20395;-65
2022/05/15 13:59:58;;;;;;;;;;;26.40;99.90;;;;;;5049797;28;19917;-61
2022/05/15 14:02:25;;;;;;;;;;;26.40;99.90;;;;;;5058117;28;20378;-61
2022/05/15 14:04:54;;;;;;;;;;;26.40;99.90;;;;;;5045900;28;20424;-63
2022/05/15 14:07:29;;;;;;;;;;;26.40;99.90;;;;;;5052860;28;19920;-61
2022/05/15 14:09:56;;;;;;;;;;;26.40;99.90;;;;;;5054850;28;20338;-62
2022/05/15 14:12:40;;;;;;;;;;;26.40;99.90;;;;;;5061228;28;19909;-60
2022/05/15 14:15:07;;;;;;;;;;;26.40;99.90;;;;;;5070297;28;19928;-61
2022/05/15 14:17:49;;;;;;;;;;;26.40;99.90;;;;;;5054319;28;19913;-62
2022/05/15 14:20:27;;;;;;;;;;;26.30;99.90;;;;;;5051288;28;19917;-61
2022/05/15 14:22:53;;;;;;;;;;;26.10;99.90;;;;;;5053506;28;19940;-61
2022/05/15 14:25:19;;;;;;;;;;;26.00;99.90;;;;;;5049527;28;19963;-61
2022/05/15 14:27:44;;;;;;;;;;;26.10;99.90;;;;;;5029295;28;19913;-62
2022/05/15 14:30:10;;;;;;;;;;;26.10;99.90;;;;;;5049490;28;19919;-62
2022/05/15 14:32:36;;;;;;;;;;;26.00;99.90;;;;;;5052330;28;20254;-61
2022/05/15 14:35:05;;;;;;;;;;;26.10;99.90;;;;;;5052979;28;20007;-60
2022/05/15 14:37:31;;;;;;;;;;;26.10;99.90;;;;;;5056802;28;20075;-60
2022/05/15 14:39:57;;;;;;;;;;;26.10;99.90;;;;;;5057424;28;20035;-60
2022/05/15 14:42:22;;;;;;;;;;;26.30;99.90;;;;;;5055479;28;19920;-60
2022/05/15 14:44:48;;;;;;;;;;;26.40;99.90;;;;;;5051834;28;19913;-59
2022/05/15 14:47:16;;;;;;;;;;;26.40;99.90;;;;;;5053232;28;19913;-59
2022/05/15 14:49:42;;;;;;;;;;;26.40;99.90;;;;;;5052802;28;19913;-59
2022/05/15 14:52:08;;;;;;;;;;;26.40;99.90;;;;;;5045299;28;19928;-63